Time;durP1;ratioP1;P1;durP2;ratioP2;P2;SDS_P1;SDS_P2;PMS_P1;PMS_P2;Temp;Humidity;BMP_temperature;BMP_pressure;BME280_temperature;BME280_humidity;BME280_pressure;Samples;Min_cycle;Max_cycle;Signal;HPM_P1;HPM_P2
2022/03/15 00:05:20;;;;;;;7.38;1.95;;;7.20;99.90;;;;;;20602885;28;20226;-46
2022/03/15 00:15:21;;;;;;;3.63;2.20;;;7.10;99.90;;;;;;20655354;28;20050;-46
2022/03/15 00:25:23;;;;;;;4.60;1.50;;;7.20;99.90;;;;;;20609098;28;20045;-47
2022/03/15 00:35:24;;;;;;;7.45;2.45;;;7.20;99.90;;;;;;20601544;28;20042;-46
2022/03/15 00:45:28;;;;;;;5.82;2.70;;;7.10;99.90;;;;;;20613741;28;20046;-46
2022/03/15 00:55:29;;;;;;;5.45;1.85;;;7.10;99.90;;;;;;20622796;28;21451;-48
2022/03/15 01:05:31;;;;;;;4.95;2.15;;;7.00;99.90;;;;;;20591114;28;20036;-46
2022/03/15 01:15:39;;;;;;;4.43;2.10;;;6.90;99.90;;;;;;20628098;28;20058;-46
2022/03/15 01:25:40;;;;;;;5.40;1.95;;;6.80;99.90;;;;;;20625463;28;20038;-47
2022/03/15 01:35:42;;;;;;;8.90;2.35;;;6.80;99.90;;;;;;20661597;28;20540;-46
2022/03/15 01:45:43;;;;;;;4.20;2.58;;;6.70;99.90;;;;;;20646145;28;20054;-47
2022/03/15 01:55:45;;;;;;;5.85;2.20;;;6.70;99.90;;;;;;20647424;28;20050;-46
2022/03/15 02:05:46;;;;;;;5.25;2.20;;;6.60;99.90;;;;;;20640608;28;20034;-47
2022/03/15 02:15:47;;;;;;;6.68;3.03;;;6.50;99.90;;;;;;20629843;28;20065;-46
2022/03/15 02:25:48;;;;;;;6.72;2.55;;;6.60;99.90;;;;;;20637596;28;20034;-46
2022/03/15 02:35:49;;;;;;;7.43;3.38;;;6.80;99.90;;;;;;20604200;28;20061;-47
2022/03/15 02:45:50;;;;;;;8.40;2.40;;;6.90;99.90;;;;;;20614529;28;20470;-46
2022/03/15 02:55:52;;;;;;;6.47;2.97;;;6.90;99.90;;;;;;20638238;28;20266;-46
2022/03/15 03:05:53;;;;;;;6.45;3.05;;;6.90;99.90;;;;;;20623934;28;20034;-46
2022/03/15 03:15:57;;;;;;;11.82;3.55;;;6.90;99.90;;;;;;20634110;28;20053;-46
2022/03/15 03:25:59;;;;;;;12.00;5.00;;;6.90;99.90;;;;;;20628224;28;20383;-46
2022/03/15 03:36:02;;;;;;;15.48;5.35;;;7.00;99.90;;;;;;20631168;28;20046;-46
2022/03/15 03:46:03;;;;;;;10.30;5.40;;;7.20;99.90;;;;;;20636171;28;20038;-46
2022/03/15 03:56:04;;;;;;;10.43;5.22;;;7.50;99.90;;;;;;20645579;28;20057;-46
2022/03/15 04:06:11;;;;;;;10.68;4.90;;;7.60;99.90;;;;;;20628847;28;20046;-46
2022/03/15 04:16:12;;;;;;;15.77;4.97;;;7.60;99.90;;;;;;20634635;28;20058;-46
2022/03/15 04:26:13;;;;;;;12.85;5.07;;;7.60;99.90;;;;;;20650674;28;20042;-47
2022/03/15 04:36:14;;;;;;;13.50;4.80;;;7.60;99.90;;;;;;20653583;28;20045;-47
2022/03/15 04:46:16;;;;;;;9.90;4.47;;;7.60;99.90;;;;;;20661918;28;20048;-47
2022/03/15 04:56:18;;;;;;;12.60;4.05;;;7.60;99.90;;;;;;20644308;28;20065;-46
2022/03/15 05:06:20;;;;;;;9.10;4.05;;;7.60;99.90;;;;;;20644560;28;20034;-46
2022/03/15 05:16:22;;;;;;;12.48;5.88;;;7.50;99.90;;;;;;20632974;28;20053;-46
2022/03/15 05:26:24;;;;;;;11.52;4.93;;;7.40;99.90;;;;;;20626997;28;20039;-46
2022/03/15 05:36:25;;;;;;;12.48;5.03;;;7.40;99.90;;;;;;20634291;28;20046;-46
2022/03/15 05:46:26;;;;;;;10.80;5.30;;;7.40;99.90;;;;;;20614787;28;20297;-46
2022/03/15 05:56:27;;;;;;;17.63;5.22;;;7.40;99.90;;;;;;20640740;28;20057;-46
2022/03/15 06:06:28;;;;;;;12.73;5.40;;;7.50;99.90;;;;;;20672944;28;20098;-47
2022/03/15 06:16:29;;;;;;;14.02;5.25;;;7.50;99.90;;;;;;20660558;28;20041;-46
2022/03/15 06:26:30;;;;;;;12.55;5.15;;;7.50;99.90;;;;;;20659079;28;20431;-46
2022/03/15 06:36:34;;;;;;;15.63;4.70;;;7.50;99.90;;;;;;20652518;28;20050;-46
2022/03/15 06:46:35;;;;;;;18.25;5.85;;;7.50;99.90;;;;;;20629677;28;20159;-47
2022/03/15 06:56:39;;;;;;;14.98;5.60;;;7.50;99.90;;;;;;20659384;28;20035;-46
2022/03/15 07:06:40;;;;;;;10.93;4.80;;;7.50;99.90;;;;;;20652689;28;20035;-46
2022/03/15 07:16:41;;;;;;;14.68;6.35;;;7.60;99.90;;;;;;20650030;28;20120;-46
2022/03/15 07:26:42;;;;;;;12.93;5.70;;;7.60;99.90;;;;;;20648480;28;20046;-46
2022/03/15 07:36:43;;;;;;;10.80;4.97;;;7.70;99.90;;;;;;20628223;28;20038;-46
2022/03/15 07:46:48;;;;;;;11.35;5.28;;;7.80;99.90;;;;;;20644457;28;20402;-46
2022/03/15 07:56:50;;;;;;;10.63;4.85;;;7.80;99.90;;;;;;20631646;28;20122;-46
2022/03/15 08:06:51;;;;;;;14.77;5.72;;;7.90;99.90;;;;;;20665407;28;20048;-46
2022/03/15 08:16:52;;;;;;;13.35;4.88;;;8.10;99.90;;;;;;20632944;28;20527;-47
2022/03/15 08:26:55;;;;;;;10.50;4.82;;;8.10;99.90;;;;;;20592242;28;20527;-46
2022/03/15 08:36:56;;;;;;;13.55;4.78;;;8.20;99.90;;;;;;20623179;28;20070;-46
2022/03/15 08:46:57;;;;;;;14.07;4.68;;;8.40;99.90;;;;;;20617540;28;20042;-46
2022/03/15 08:56:58;;;;;;;9.55;3.85;;;8.50;99.90;;;;;;20604967;28;20041;-47
2022/03/15 09:06:59;;;;;;;12.80;4.05;;;8.60;99.90;;;;;;20590995;28;20060;-46
2022/03/15 09:17:00;;;;;;;11.55;4.90;;;8.70;99.90;;;;;;20620001;28;20979;-46
2022/03/15 09:27:02;;;;;;;9.25;3.78;;;8.80;99.90;;;;;;20602166;28;20690;-46
2022/03/15 09:37:05;;;;;;;11.52;5.03;;;8.90;99.90;;;;;;20600392;28;20038;-46
2022/03/15 09:47:07;;;;;;;7.25;3.72;;;9.20;99.90;;;;;;20633944;28;20052;-46
2022/03/15 09:57:09;;;;;;;12.68;4.22;;;9.30;99.90;;;;;;20631819;28;20035;-47
2022/03/15 10:07:10;;;;;;;8.73;3.33;;;9.50;99.90;;;;;;20630378;28;20126;-47
2022/03/15 10:17:14;;;;;;;10.15;3.55;;;9.70;99.90;;;;;;20651814;28;20271;-47
2022/03/15 10:27:16;;;;;;;9.70;3.10;;;10.10;99.90;;;;;;20635427;28;20050;-48
2022/03/15 10:37:18;;;;;;;8.52;3.85;;;10.30;99.90;;;;;;20645811;28;20125;-47
2022/03/15 10:47:21;;;;;;;5.78;2.80;;;10.40;99.90;;;;;;20644052;28;20053;-47
2022/03/15 10:57:22;;;;;;;6.50;3.17;;;10.50;99.90;;;;;;20660642;28;20042;-49
2022/03/15 11:07:24;;;;;;;6.95;2.75;;;10.50;99.90;;;;;;20651718;28;20042;-47
2022/03/15 11:17:26;;;;;;;6.13;2.47;;;10.70;99.90;;;;;;20651264;28;20046;-47
2022/03/15 11:27:31;;;;;;;4.13;1.98;;;11.80;99.90;;;;;;20637846;28;20442;-47
2022/03/15 11:37:33;;;;;;;4.72;2.25;;;13.30;99.90;;;;;;20634800;28;20309;-47
2022/03/15 11:47:57;;;;;;;3.25;1.58;;;14.00;99.90;;;;;;20652336;28;20050;-47
2022/03/15 11:58:05;;;;;;;2.65;1.35;;;14.50;99.90;;;;;;20639330;28;20057;-48
2022/03/15 12:08:12;;;;;;;2.88;1.48;;;15.10;99.90;;;;;;20647526;28;20058;-48
2022/03/15 12:28:30;;;;;;;8.48;1.50;;;16.20;99.90;;;;;;20615647;28;20051;-47
2022/03/15 12:38:39;;;;;;;1.85;0.95;;;16.40;99.70;;;;;;20605657;28;20061;-48
2022/03/15 12:48:43;;;;;;;4.55;1.42;;;16.90;98.00;;;;;;20605055;28;20435;-48
2022/03/15 12:58:44;;;;;;;2.08;1.23;;;16.90;98.20;;;;;;20622596;28;20042;-48
2022/03/15 13:08:59;;;;;;;3.55;0.70;;;17.20;97.90;;;;;;20630935;28;20050;-48
2022/03/15 13:19:03;;;;;;;1.75;0.60;;;17.60;95.20;;;;;;20619629;28;20047;-48
2022/03/15 13:29:07;;;;;;;1.90;0.90;;;17.50;95.10;;;;;;20626844;28;20038;-48
2022/03/15 13:39:10;;;;;;;5.75;1.30;;;17.60;95.70;;;;;;20619406;28;20528;-48
2022/03/15 13:49:26;;;;;;;4.40;1.08;;;17.80;95.10;;;;;;20629972;28;20538;-49
2022/03/15 13:59:27;;;;;;;1.90;0.88;;;17.50;94.30;;;;;;20630972;28;20043;-48
2022/03/15 14:09:31;;;;;;;4.15;1.23;;;18.10;94.80;;;;;;20623404;28;21386;-48
2022/03/15 14:19:44;;;;;;;3.22;1.08;;;18.70;93.20;;;;;;20598096;28;20497;-48
2022/03/15 14:29:54;;;;;;;2.40;1.13;;;19.00;94.80;;;;;;20595876;28;20046;-48
2022/03/15 14:40:03;;;;;;;2.10;0.82;;;18.90;92.50;;;;;;20614798;28;20046;-48
2022/03/15 14:50:06;;;;;;;3.03;1.20;;;18.30;94.00;;;;;;20634311;28;20050;-49
2022/03/15 15:00:08;;;;;;;3.05;1.23;;;17.40;93.20;;;;;;20630401;28;20042;-48
2022/03/15 15:10:10;;;;;;;4.88;1.70;;;16.90;93.20;;;;;;20633149;28;20054;-47
2022/03/15 15:20:12;;;;;;;4.32;1.80;;;16.30;94.80;;;;;;20613408;28;20022;-47
2022/03/15 15:30:13;;;;;;;4.68;1.92;;;16.00;97.40;;;;;;20624748;28;20621;-48
2022/03/15 15:40:18;;;;;;;3.80;1.92;;;15.70;97.40;;;;;;20659448;28;20041;-55
2022/03/15 15:50:22;;;;;;;3.42;1.77;;;15.40;98.40;;;;;;20649971;28;20423;-48
2022/03/15 16:00:25;;;;;;;3.72;2.25;;;15.20;99.30;;;;;;20652538;28;20045;-48
2022/03/15 16:10:27;;;;;;;8.80;2.60;;;15.00;99.90;;;;;;20663164;28;20072;-48
2022/03/15 16:20:28;;;;;;;4.15;1.65;;;14.60;99.90;;;;;;20648189;28;20053;-48
2022/03/15 16:30:29;;;;;;;5.03;2.00;;;14.40;99.90;;;;;;20647425;28;22216;-48
2022/03/15 16:40:36;;;;;;;6.13;1.90;;;14.20;99.90;;;;;;20647854;28;20084;-48
2022/03/15 16:50:39;;;;;;;4.28;1.80;;;14.00;99.90;;;;;;20636803;28;20057;-48
2022/03/15 17:00:40;;;;;;;5.70;2.30;;;13.80;99.90;;;;;;20636195;28;20119;-48
2022/03/15 17:10:42;;;;;;;4.85;2.03;;;13.60;99.90;;;;;;20591987;28;20055;-47
2022/03/15 17:20:45;;;;;;;5.50;2.42;;;13.50;99.90;;;;;;20650678;28;20042;-48
2022/03/15 17:30:46;;;;;;;5.53;2.45;;;13.30;99.90;;;;;;20638872;28;20059;-48
2022/03/15 17:40:51;;;;;;;4.80;2.00;;;13.00;99.90;;;;;;20644067;28;20034;-47
2022/03/15 17:50:52;;;;;;;5.20;2.60;;;12.80;99.90;;;;;;20619864;28;20049;-47
2022/03/15 18:00:54;;;;;;;4.13;2.50;;;12.70;99.90;;;;;;20627275;28;20027;-47
2022/03/15 18:10:55;;;;;;;5.60;2.65;;;12.60;99.90;;;;;;20619626;28;20038;-47
2022/03/15 18:20:59;;;;;;;3.10;1.80;;;12.40;99.90;;;;;;20643776;28;20076;-47
2022/03/15 18:31:00;;;;;;;4.22;1.65;;;12.30;99.90;;;;;;20652508;28;20041;-47
2022/03/15 18:41:01;;;;;;;7.55;1.67;;;12.00;99.90;;;;;;20602724;28;20042;-47
2022/03/15 18:51:04;;;;;;;4.07;1.75;;;11.90;99.90;;;;;;20624369;28;20501;-47
2022/03/15 19:01:06;;;;;;;4.07;1.73;;;11.70;99.90;;;;;;20612043;28;20039;-47
2022/03/15 19:11:10;;;;;;;4.15;1.70;;;11.70;99.90;;;;;;20628167;28;20057;-47
2022/03/15 19:21:13;;;;;;;3.58;1.88;;;11.50;99.90;;;;;;20636624;28;20444;-47
2022/03/15 19:31:17;;;;;;;4.90;2.35;;;11.40;99.90;;;;;;20629527;28;20618;-47
2022/03/15 19:41:20;;;;;;;6.15;2.50;;;11.30;99.90;;;;;;20607377;28;20645;-47
2022/03/15 19:51:22;;;;;;;2.85;1.63;;;11.30;99.90;;;;;;20611050;28;20055;-46
2022/03/15 20:01:24;;;;;;;4.13;2.10;;;11.00;99.90;;;;;;20606921;28;20042;-47
2022/03/15 20:11:28;;;;;;;4.25;2.20;;;10.90;99.90;;;;;;20622508;28;20043;-47
2022/03/15 20:21:30;;;;;;;4.78;1.88;;;10.70;99.90;;;;;;20626124;28;20049;-47
2022/03/15 20:31:34;;;;;;;3.35;1.80;;;10.50;99.90;;;;;;20652121;28;20054;-46
2022/03/15 20:41:36;;;;;;;4.38;2.03;;;10.20;99.90;;;;;;20645368;28;20038;-47
2022/03/15 20:51:38;;;;;;;5.55;1.88;;;10.10;99.90;;;;;;20641505;28;20057;-47
2022/03/15 21:01:39;;;;;;;4.00;2.15;;;10.00;99.90;;;;;;20654135;28;20042;-46
2022/03/15 21:11:47;;;;;;;5.50;2.42;;;9.90;99.90;;;;;;20648383;28;20529;-47
2022/03/15 21:21:48;;;;;;;;;;;9.90;99.90;;;;;;20651440;28;20042;-48
2022/03/15 21:31:49;;;;;;;6.43;3.35;;;9.90;99.90;;;;;;20644873;28;19968;-47
2022/03/15 21:41:51;;;;;;;6.38;3.30;;;9.90;99.90;;;;;;20647404;28;20104;-47
2022/03/15 21:51:52;;;;;;;5.75;2.78;;;9.80;99.90;;;;;;20600651;28;20046;-47
2022/03/15 22:01:54;;;;;;;8.90;5.28;;;9.80;99.90;;;;;;20638322;28;20404;-48
2022/03/15 22:11:55;;;;;;;10.02;4.82;;;9.60;99.90;;;;;;20644884;28;20422;-47
2022/03/15 22:21:57;;;;;;;8.60;3.97;;;9.60;99.90;;;;;;20624751;28;20070;-47
2022/03/15 23:23:19;;;;;;;13.60;5.82;;;9.10;99.90;;;;;;20607766;28;20058;-47
2022/03/15 23:33:21;;;;;;;14.80;6.32;;;9.00;99.90;;;;;;20617622;28;20053;-46
2022/03/15 23:43:22;;;;;;;10.10;5.63;;;8.80;99.90;;;;;;20616023;28;20042;-47
2022/03/15 23:53:24;;;;;;;12.82;5.40;;;8.70;99.90;;;;;;20610112;28;20138;-47
